sensor_id;sensor_type;location;lat;lon;timestamp;pressure;altitude;pressure_sealevel;temperature;humidity
34696;BME280;20918;51.138;17.370;2023-12-20T00:01:44;99620.23;;;4.99;93.37
34696;BME280;20918;51.138;17.370;2023-12-20T00:04:52;99605.52;;;4.99;93.59
34696;BME280;20918;51.138;17.370;2023-12-20T00:07:53;99600.64;;;4.98;93.78
34696;BME280;20918;51.138;17.370;2023-12-20T00:10:54;99604.08;;;4.99;94.01
34696;BME280;20918;51.138;17.370;2023-12-20T00:13:58;99598.15;;;4.99;93.95
34696;BME280;20918;51.138;17.370;2023-12-20T00:16:59;99595.85;;;4.99;94.01
34696;BME280;20918;51.138;17.370;2023-12-20T00:20:00;99597.61;;;5.00;93.98
34696;BME280;20918;51.138;17.370;2023-12-20T00:23:01;99606.49;;;5.01;94.02
34696;BME280;20918;51.138;17.370;2023-12-20T00:26:03;99608.10;;;5.01;94.14
34696;BME280;20918;51.138;17.370;2023-12-20T00:29:04;99608.44;;;5.01;94.21
34696;BME280;20918;51.138;17.370;2023-12-20T00:32:05;99594.61;;;5.01;94.27
34696;BME280;20918;51.138;17.370;2023-12-20T00:35:18;99592.98;;;5.01;94.21
34696;BME280;20918;51.138;17.370;2023-12-20T00:38:19;99598.08;;;5.01;94.21
34696;BME280;20918;51.138;17.370;2023-12-20T00:41:20;99597.81;;;5.02;94.23
34696;BME280;20918;51.138;17.370;2023-12-20T00:44:23;99595.84;;;5.03;94.53
34696;BME280;20918;51.138;17.370;2023-12-20T00:47:29;99591.77;;;5.01;94.51
34696;BME280;20918;51.138;17.370;2023-12-20T00:50:30;99583.89;;;5.01;94.45
34696;BME280;20918;51.138;17.370;2023-12-20T00:53:30;99582.39;;;5.00;94.68
34696;BME280;20918;51.138;17.370;2023-12-20T00:56:31;99587.02;;;4.99;94.87
34696;BME280;20918;51.138;17.370;2023-12-20T00:59:32;99583.15;;;4.98;94.62
34696;BME280;20918;51.138;17.370;2023-12-20T01:02:36;99581.98;;;4.97;94.73
34696;BME280;20918;51.138;17.370;2023-12-20T01:05:58;99588.23;;;4.96;95.15
34696;BME280;20918;51.138;17.370;2023-12-20T01:08:58;99587.06;;;4.93;95.09
34696;BME280;20918;51.138;17.370;2023-12-20T01:11:59;99579.52;;;4.91;95.61
34696;BME280;20918;51.138;17.370;2023-12-20T01:15:00;99578.14;;;4.89;95.48
34696;BME280;20918;51.138;17.370;2023-12-20T01:18:01;99576.13;;;4.88;95.70
34696;BME280;20918;51.138;17.370;2023-12-20T01:21:02;99573.71;;;4.88;95.38
34696;BME280;20918;51.138;17.370;2023-12-20T01:24:06;99571.48;;;4.87;95.65
34696;BME280;20918;51.138;17.370;2023-12-20T01:27:07;99566.25;;;4.87;95.62
34696;BME280;20918;51.138;17.370;2023-12-20T01:30:21;99559.11;;;4.86;95.73
34696;BME280;20918;51.138;17.370;2023-12-20T01:33:22;99558.92;;;4.87;95.66
34696;BME280;20918;51.138;17.370;2023-12-20T01:36:22;99560.48;;;4.87;95.92
34696;BME280;20918;51.138;17.370;2023-12-20T01:39:23;99553.70;;;4.85;96.05
34696;BME280;20918;51.138;17.370;2023-12-20T01:42:24;99545.48;;;4.82;96.47
34696;BME280;20918;51.138;17.370;2023-12-20T01:45:25;99552.33;;;4.82;96.57
34696;BME280;20918;51.138;17.370;2023-12-20T01:48:29;99538.90;;;4.82;96.77
34696;BME280;20918;51.138;17.370;2023-12-20T01:51:38;99545.84;;;4.80;96.99
34696;BME280;20918;51.138;17.370;2023-12-20T01:55:05;99543.54;;;4.81;97.11
34696;BME280;20918;51.138;17.370;2023-12-20T01:58:13;99534.31;;;4.80;97.42
34696;BME280;20918;51.138;17.370;2023-12-20T02:01:15;99533.40;;;4.81;97.54
34696;BME280;20918;51.138;17.370;2023-12-20T02:04:16;99524.38;;;4.81;97.68
34696;BME280;20918;51.138;17.370;2023-12-20T02:07:18;99520.58;;;4.83;97.67
34696;BME280;20918;51.138;17.370;2023-12-20T02:13:57;99525.89;;;4.84;97.92
34696;BME280;20918;51.138;17.370;2023-12-20T02:17:08;99522.15;;;4.85;98.25
34696;BME280;20918;51.138;17.370;2023-12-20T02:20:09;99508.89;;;4.86;98.18
34696;BME280;20918;51.138;17.370;2023-12-20T02:23:09;99507.08;;;4.86;98.17
34696;BME280;20918;51.138;17.370;2023-12-20T02:26:10;99513.55;;;4.86;98.55
34696;BME280;20918;51.138;17.370;2023-12-20T02:29:13;99513.09;;;4.86;99.03
34696;BME280;20918;51.138;17.370;2023-12-20T02:32:29;99509.80;;;4.85;99.52
34696;BME280;20918;51.138;17.370;2023-12-20T02:35:30;99494.32;;;4.84;99.35
34696;BME280;20918;51.138;17.370;2023-12-20T02:38:31;99490.69;;;4.85;99.54
34696;BME280;20918;51.138;17.370;2023-12-20T02:41:32;99490.31;;;4.86;99.34
34696;BME280;20918;51.138;17.370;2023-12-20T02:44:53;99497.23;;;4.85;99.32
34696;BME280;20918;51.138;17.370;2023-12-20T02:48:14;99492.39;;;4.84;99.51
34696;BME280;20918;51.138;17.370;2023-12-20T02:51:18;99491.61;;;4.85;99.29
34696;BME280;20918;51.138;17.370;2023-12-20T02:54:19;99490.23;;;4.85;99.45
34696;BME280;20918;51.138;17.370;2023-12-20T02:57:40;99492.36;;;4.85;98.86
34696;BME280;20918;51.138;17.370;2023-12-20T03:00:46;99489.86;;;4.83;99.14
34696;BME280;20918;51.138;17.370;2023-12-20T03:03:49;99488.65;;;4.81;99.20
34696;BME280;20918;51.138;17.370;2023-12-20T03:06:51;99481.86;;;4.79;98.75
34696;BME280;20918;51.138;17.370;2023-12-20T03:09:51;99475.17;;;4.77;98.96
34696;BME280;20918;51.138;17.370;2023-12-20T03:12:52;99471.74;;;4.75;98.99
34696;BME280;20918;51.138;17.370;2023-12-20T03:15:53;99471.38;;;4.71;99.12
34696;BME280;20918;51.138;17.370;2023-12-20T03:18:53;99473.88;;;4.69;98.93
34696;BME280;20918;51.138;17.370;2023-12-20T03:21:54;99475.63;;;4.67;99.08
34696;BME280;20918;51.138;17.370;2023-12-20T03:24:55;99477.82;;;4.66;98.91
34696;BME280;20918;51.138;17.370;2023-12-20T03:27:57;99474.95;;;4.65;98.93
34696;BME280;20918;51.138;17.370;2023-12-20T03:31:01;99476.17;;;4.63;99.27
34696;BME280;20918;51.138;17.370;2023-12-20T03:34:06;99479.86;;;4.61;99.10
34696;BME280;20918;51.138;17.370;2023-12-20T03:37:17;99484.39;;;4.59;99.34
34696;BME280;20918;51.138;17.370;2023-12-20T03:40:28;99482.83;;;4.58;99.29
34696;BME280;20918;51.138;17.370;2023-12-20T03:43:29;99485.41;;;4.56;99.64
34696;BME280;20918;51.138;17.370;2023-12-20T03:46:30;99479.64;;;4.54;99.68
34696;BME280;20918;51.138;17.370;2023-12-20T03:49:33;99485.66;;;4.54;99.44
34696;BME280;20918;51.138;17.370;2023-12-20T03:52:33;99489.84;;;4.52;99.91
34696;BME280;20918;51.138;17.370;2023-12-20T03:55:39;99490.77;;;4.51;99.74
34696;BME280;20918;51.138;17.370;2023-12-20T03:58:40;99489.27;;;4.50;99.67
34696;BME280;20918;51.138;17.370;2023-12-20T04:01:44;99485.80;;;4.50;99.73
34696;BME280;20918;51.138;17.370;2023-12-20T04:04:54;99487.11;;;4.47;100.00
34696;BME280;20918;51.138;17.370;2023-12-20T04:08:16;99486.77;;;4.45;99.66
34696;BME280;20918;51.138;17.370;2023-12-20T04:11:24;99484.04;;;4.44;99.93
34696;BME280;20918;51.138;17.370;2023-12-20T04:14:25;99486.31;;;4.42;99.88
34696;BME280;20918;51.138;17.370;2023-12-20T04:17:26;99486.93;;;4.41;99.89
34696;BME280;20918;51.138;17.370;2023-12-20T04:20:27;99488.59;;;4.39;99.92
34696;BME280;20918;51.138;17.370;2023-12-20T04:23:27;99485.67;;;4.36;99.99
34696;BME280;20918;51.138;17.370;2023-12-20T04:26:34;99481.90;;;4.33;99.95
34696;BME280;20918;51.138;17.370;2023-12-20T04:29:38;99480.52;;;4.31;99.96
34696;BME280;20918;51.138;17.370;2023-12-20T04:32:39;99485.21;;;4.28;100.00
34696;BME280;20918;51.138;17.370;2023-12-20T04:35:40;99487.89;;;4.25;100.00
34696;BME280;20918;51.138;17.370;2023-12-20T04:38:48;99488.54;;;4.22;100.00
34696;BME280;20918;51.138;17.370;2023-12-20T04:41:49;99487.80;;;4.21;100.00
34696;BME280;20918;51.138;17.370;2023-12-20T04:44:52;99486.16;;;4.20;100.00
34696;BME280;20918;51.138;17.370;2023-12-20T04:47:54;99482.11;;;4.18;100.00
34696;BME280;20918;51.138;17.370;2023-12-20T04:50:58;99480.28;;;4.17;100.00
34696;BME280;20918;51.138;17.370;2023-12-20T04:54:06;99485.04;;;4.17;100.00
34696;BME280;20918;51.138;17.370;2023-12-20T04:57:07;99476.66;;;4.16;100.00
34696;BME280;20918;51.138;17.370;2023-12-20T05:00:08;99473.81;;;4.15;100.00
34696;BME280;20918;51.138;17.370;2023-12-20T05:03:09;99471.77;;;4.12;100.00
34696;BME280;20918;51.138;17.370;2023-12-20T05:06:10;99467.08;;;4.10;100.00
34696;BME280;20918;51.138;17.370;2023-12-20T05:09:20;99470.38;;;4.09;100.00
34696;BME280;20918;51.138;17.370;2023-12-20T05:12:29;99467.08;;;4.08;100.00
34696;BME280;20918;51.138;17.370;2023-12-20T05:15:30;99463.95;;;4.06;100.00
34696;BME280;20918;51.138;17.370;2023-12-20T05:18:31;99459.42;;;4.03;100.00
34696;BME280;20918;51.138;17.370;2023-12-20T05:21:34;99458.48;;;4.01;100.00
34696;BME280;20918;51.138;17.370;2023-12-20T05:24:41;99459.46;;;3.99;100.00
34696;BME280;20918;51.138;17.370;2023-12-20T05:27:42;99468.34;;;3.98;100.00
34696;BME280;20918;51.138;17.370;2023-12-20T05:30:42;99467.20;;;3.97;100.00
34696;BME280;20918;51.138;17.370;2023-12-20T05:33:43;99463.73;;;3.97;100.00
34696;BME280;20918;51.138;17.370;2023-12-20T05:37:06;99464.64;;;3.96;100.00
34696;BME280;20918;51.138;17.370;2023-12-20T05:40:08;99468.66;;;3.96;100.00
34696;BME280;20918;51.138;17.370;2023-12-20T05:43:13;99467.41;;;3.97;100.00
34696;BME280;20918;51.138;17.370;2023-12-20T05:46:14;99470.21;;;3.97;100.00
34696;BME280;20918;51.138;17.370;2023-12-20T05:49:14;99474.09;;;3.96;100.00
34696;BME280;20918;51.138;17.370;2023-12-20T05:52:40;99474.63;;;3.96;100.00
34696;BME280;20918;51.138;17.370;2023-12-20T05:55:40;99466.69;;;3.95;100.00
34696;BME280;20918;51.138;17.370;2023-12-20T05:58:43;99468.73;;;3.96;100.00
34696;BME280;20918;51.138;17.370;2023-12-20T06:01:55;99467.77;;;3.95;100.00
34696;BME280;20918;51.138;17.370;2023-12-20T06:04:56;99470.95;;;3.95;100.00
34696;BME280;20918;51.138;17.370;2023-12-20T06:08:03;99468.05;;;3.94;100.00
34696;BME280;20918;51.138;17.370;2023-12-20T06:11:17;99464.54;;;3.94;100.00
34696;BME280;20918;51.138;17.370;2023-12-20T06:14:23;99461.72;;;3.94;100.00
34696;BME280;20918;51.138;17.370;2023-12-20T06:17:45;99461.92;;;3.94;100.00
34696;BME280;20918;51.138;17.370;2023-12-20T06:21:03;99465.50;;;3.93;100.00
34696;BME280;20918;51.138;17.370;2023-12-20T06:24:13;99465.04;;;3.94;100.00
34696;BME280;20918;51.138;17.370;2023-12-20T06:27:16;99465.57;;;3.94;100.00
34696;BME280;20918;51.138;17.370;2023-12-20T06:30:18;99466.45;;;3.94;100.00
34696;BME280;20918;51.138;17.370;2023-12-20T06:33:18;99466.75;;;3.93;100.00
34696;BME280;20918;51.138;17.370;2023-12-20T06:36:20;99463.29;;;3.92;100.00
34696;BME280;20918;51.138;17.370;2023-12-20T06:39:21;99465.31;;;3.91;100.00
34696;BME280;20918;51.138;17.370;2023-12-20T06:42:21;99467.04;;;3.91;100.00
34696;BME280;20918;51.138;17.370;2023-12-20T06:45:22;99466.93;;;3.91;100.00
34696;BME280;20918;51.138;17.370;2023-12-20T06:48:25;99470.38;;;3.89;100.00
34696;BME280;20918;51.138;17.370;2023-12-20T06:51:28;99469.38;;;3.89;100.00
34696;BME280;20918;51.138;17.370;2023-12-20T06:54:29;99471.03;;;3.88;100.00
34696;BME280;20918;51.138;17.370;2023-12-20T06:57:29;99476.73;;;3.87;100.00
34696;BME280;20918;51.138;17.370;2023-12-20T07:00:32;99471.89;;;3.86;100.00
34696;BME280;20918;51.138;17.370;2023-12-20T07:03:33;99471.38;;;3.86;100.00
34696;BME280;20918;51.138;17.370;2023-12-20T07:06:34;99471.77;;;3.86;100.00
34696;BME280;20918;51.138;17.370;2023-12-20T07:09:35;99480.45;;;3.85;100.00
34696;BME280;20918;51.138;17.370;2023-12-20T07:12:35;99483.83;;;3.84;100.00
34696;BME280;20918;51.138;17.370;2023-12-20T07:15:36;99484.96;;;3.83;100.00
34696;BME280;20918;51.138;17.370;2023-12-20T07:18:37;99484.97;;;3.83;100.00
34696;BME280;20918;51.138;17.370;2023-12-20T07:21:38;99486.08;;;3.84;100.00
34696;BME280;20918;51.138;17.370;2023-12-20T07:24:39;99489.55;;;3.84;100.00
34696;BME280;20918;51.138;17.370;2023-12-20T07:27:39;99491.54;;;3.84;100.00
34696;BME280;20918;51.138;17.370;2023-12-20T07:30:44;99493.61;;;3.84;100.00
34696;BME280;20918;51.138;17.370;2023-12-20T07:33:48;99496.08;;;3.84;100.00
34696;BME280;20918;51.138;17.370;2023-12-20T07:36:49;99490.95;;;3.84;100.00
34696;BME280;20918;51.138;17.370;2023-12-20T07:39:49;99493.02;;;3.85;100.00
34696;BME280;20918;51.138;17.370;2023-12-20T07:42:51;99495.21;;;3.86;100.00
34696;BME280;20918;51.138;17.370;2023-12-20T07:45:51;99495.31;;;3.86;100.00
34696;BME280;20918;51.138;17.370;2023-12-20T07:48:52;99496.84;;;3.87;100.00
34696;BME280;20918;51.138;17.370;2023-12-20T07:51:53;99498.94;;;3.87;100.00
34696;BME280;20918;51.138;17.370;2023-12-20T07:54:53;99499.63;;;3.87;100.00
34696;BME280;20918;51.138;17.370;2023-12-20T07:57:57;99504.10;;;3.88;100.00
34696;BME280;20918;51.138;17.370;2023-12-20T08:01:04;99503.38;;;3.88;100.00
34696;BME280;20918;51.138;17.370;2023-12-20T08:04:04;99502.17;;;3.88;100.00
34696;BME280;20918;51.138;17.370;2023-12-20T08:07:05;99503.63;;;3.89;100.00
34696;BME280;20918;51.138;17.370;2023-12-20T08:10:06;99502.39;;;3.89;100.00
34696;BME280;20918;51.138;17.370;2023-12-20T08:13:07;99502.05;;;3.89;100.00
34696;BME280;20918;51.138;17.370;2023-12-20T08:16:14;99498.55;;;3.87;100.00
34696;BME280;20918;51.138;17.370;2023-12-20T08:19:19;99495.14;;;3.87;100.00
34696;BME280;20918;51.138;17.370;2023-12-20T08:22:25;99499.30;;;3.85;100.00
34696;BME280;20918;51.138;17.370;2023-12-20T08:25:29;99505.46;;;3.86;100.00
34696;BME280;20918;51.138;17.370;2023-12-20T08:28:30;99500.85;;;3.87;100.00
34696;BME280;20918;51.138;17.370;2023-12-20T08:31:31;99500.38;;;3.86;100.00
34696;BME280;20918;51.138;17.370;2023-12-20T08:34:32;99495.92;;;3.88;100.00
34696;BME280;20918;51.138;17.370;2023-12-20T08:38:09;99506.94;;;3.87;100.00
34696;BME280;20918;51.138;17.370;2023-12-20T08:41:16;99510.19;;;3.86;100.00
34696;BME280;20918;51.138;17.370;2023-12-20T08:44:20;99503.73;;;3.86;100.00
34696;BME280;20918;51.138;17.370;2023-12-20T08:47:26;99500.58;;;3.87;100.00
34696;BME280;20918;51.138;17.370;2023-12-20T08:50:37;99508.47;;;3.88;100.00
34696;BME280;20918;51.138;17.370;2023-12-20T08:53:40;99522.14;;;3.89;100.00
34696;BME280;20918;51.138;17.370;2023-12-20T08:56:42;99520.70;;;3.90;100.00
34696;BME280;20918;51.138;17.370;2023-12-20T08:59:50;99528.16;;;3.91;100.00
34696;BME280;20918;51.138;17.370;2023-12-20T09:02:51;99521.83;;;3.91;100.00
34696;BME280;20918;51.138;17.370;2023-12-20T09:06:04;99518.45;;;3.92;100.00
34696;BME280;20918;51.138;17.370;2023-12-20T09:09:11;99522.03;;;3.93;100.00
34696;BME280;20918;51.138;17.370;2023-12-20T09:12:35;99519.68;;;3.93;100.00
34696;BME280;20918;51.138;17.370;2023-12-20T09:15:50;99521.48;;;3.95;100.00
34696;BME280;20918;51.138;17.370;2023-12-20T09:19:00;99513.25;;;3.95;100.00
34696;BME280;20918;51.138;17.370;2023-12-20T09:22:01;99518.27;;;3.96;100.00
34696;BME280;20918;51.138;17.370;2023-12-20T09:25:02;99523.95;;;3.95;100.00
34696;BME280;20918;51.138;17.370;2023-12-20T09:28:04;99525.60;;;3.96;100.00
34696;BME280;20918;51.138;17.370;2023-12-20T09:31:07;99525.40;;;3.98;100.00
34696;BME280;20918;51.138;17.370;2023-12-20T09:34:08;99523.48;;;4.00;100.00
34696;BME280;20918;51.138;17.370;2023-12-20T09:37:09;99532.15;;;4.03;100.00
34696;BME280;20918;51.138;17.370;2023-12-20T09:43:23;99522.67;;;4.05;100.00
34696;BME280;20918;51.138;17.370;2023-12-20T09:46:26;99520.64;;;4.04;100.00
34696;BME280;20918;51.138;17.370;2023-12-20T09:49:43;99523.14;;;4.03;100.00
34696;BME280;20918;51.138;17.370;2023-12-20T09:52:52;99522.16;;;4.05;100.00
34696;BME280;20918;51.138;17.370;2023-12-20T09:55:53;99519.04;;;4.04;100.00
34696;BME280;20918;51.138;17.370;2023-12-20T09:58:54;99511.50;;;4.07;100.00
34696;BME280;20918;51.138;17.370;2023-12-20T10:01:57;99511.79;;;4.09;100.00
34696;BME280;20918;51.138;17.370;2023-12-20T10:05:06;99512.60;;;4.12;100.00
34696;BME280;20918;51.138;17.370;2023-12-20T10:08:09;99509.86;;;4.17;100.00
34696;BME280;20918;51.138;17.370;2023-12-20T10:11:16;99515.40;;;4.23;100.00
34696;BME280;20918;51.138;17.370;2023-12-20T10:14:40;99509.30;;;4.31;100.00
34696;BME280;20918;51.138;17.370;2023-12-20T10:17:46;99503.84;;;4.33;100.00
34696;BME280;20918;51.138;17.370;2023-12-20T10:20:53;99508.44;;;4.38;100.00
34696;BME280;20918;51.138;17.370;2023-12-20T10:24:00;99511.55;;;4.42;100.00
34696;BME280;20918;51.138;17.370;2023-12-20T10:27:30;99512.22;;;4.42;100.00
34696;BME280;20918;51.138;17.370;2023-12-20T10:30:39;99517.05;;;4.43;100.00
34696;BME280;20918;51.138;17.370;2023-12-20T10:33:40;99515.34;;;4.41;100.00
34696;BME280;20918;51.138;17.370;2023-12-20T10:36:46;99516.70;;;4.39;100.00
34696;BME280;20918;51.138;17.370;2023-12-20T10:39:51;99509.14;;;4.36;100.00
34696;BME280;20918;51.138;17.370;2023-12-20T10:42:56;99507.42;;;4.34;100.00
34696;BME280;20918;51.138;17.370;2023-12-20T10:45:59;99507.16;;;4.33;100.00
34696;BME280;20918;51.138;17.370;2023-12-20T10:49:02;99498.88;;;4.36;100.00
34696;BME280;20918;51.138;17.370;2023-12-20T10:52:04;99499.71;;;4.45;100.00
34696;BME280;20918;51.138;17.370;2023-12-20T10:55:16;99502.87;;;4.60;100.00
34696;BME280;20918;51.138;17.370;2023-12-20T10:58:34;99492.89;;;4.71;100.00
34696;BME280;20918;51.138;17.370;2023-12-20T11:01:42;99496.42;;;4.69;100.00
34696;BME280;20918;51.138;17.370;2023-12-20T11:08:33;99479.15;;;4.56;99.41
34696;BME280;20918;51.138;17.370;2023-12-20T11:15:06;99463.88;;;4.60;99.10
34696;BME280;20918;51.138;17.370;2023-12-20T11:18:37;99459.44;;;4.75;99.33
34696;BME280;20918;51.138;17.370;2023-12-20T11:21:41;99458.73;;;4.82;98.87
34696;BME280;20918;51.138;17.370;2023-12-20T11:24:44;99450.95;;;4.85;98.05
34696;BME280;20918;51.138;17.370;2023-12-20T11:28:11;99437.30;;;4.87;97.78
34696;BME280;20918;51.138;17.370;2023-12-20T11:31:14;99438.11;;;4.91;97.80
34696;BME280;20918;51.138;17.370;2023-12-20T11:34:14;99432.69;;;5.00;97.73
34696;BME280;20918;51.138;17.370;2023-12-20T11:37:19;99435.07;;;5.03;96.95
34696;BME280;20918;51.138;17.370;2023-12-20T11:40:20;99441.56;;;5.13;96.91
34696;BME280;20918;51.138;17.370;2023-12-20T11:43:34;99441.14;;;5.42;97.19
34696;BME280;20918;51.138;17.370;2023-12-20T11:46:35;99437.13;;;5.50;96.24
34696;BME280;20918;51.138;17.370;2023-12-20T11:49:36;99431.16;;;5.48;95.47
34696;BME280;20918;51.138;17.370;2023-12-20T11:52:37;99422.33;;;5.44;94.91
34696;BME280;20918;51.138;17.370;2023-12-20T11:55:38;99426.30;;;5.43;94.94
34696;BME280;20918;51.138;17.370;2023-12-20T11:58:45;99417.35;;;5.45;94.57
34696;BME280;20918;51.138;17.370;2023-12-20T12:01:50;99405.55;;;5.50;95.19
34696;BME280;20918;51.138;17.370;2023-12-20T12:04:53;99399.13;;;5.56;94.36
34696;BME280;20918;51.138;17.370;2023-12-20T12:07:59;99403.30;;;5.60;94.60
34696;BME280;20918;51.138;17.370;2023-12-20T12:11:05;99395.90;;;5.64;94.40
34696;BME280;20918;51.138;17.370;2023-12-20T12:14:09;99388.85;;;5.63;93.92
34696;BME280;20918;51.138;17.370;2023-12-20T12:17:11;99390.91;;;5.61;93.32
34696;BME280;20918;51.138;17.370;2023-12-20T12:20:13;99391.52;;;5.64;93.54
34696;BME280;20918;51.138;17.370;2023-12-20T12:23:23;99387.18;;;5.66;92.61
34696;BME280;20918;51.138;17.370;2023-12-20T12:26:38;99384.13;;;5.61;92.23
34696;BME280;20918;51.138;17.370;2023-12-20T12:29:39;99379.06;;;5.57;91.90
34696;BME280;20918;51.138;17.370;2023-12-20T12:32:48;99376.00;;;5.53;90.80
34696;BME280;20918;51.138;17.370;2023-12-20T12:35:49;99374.50;;;5.48;91.24
34696;BME280;20918;51.138;17.370;2023-12-20T12:38:50;99369.52;;;5.44;90.98
34696;BME280;20918;51.138;17.370;2023-12-20T12:41:51;99364.49;;;5.37;89.68
34696;BME280;20918;51.138;17.370;2023-12-20T12:44:55;99369.17;;;5.34;90.41
34696;BME280;20918;51.138;17.370;2023-12-20T12:47:59;99359.75;;;5.33;89.30
34696;BME280;20918;51.138;17.370;2023-12-20T12:50:59;99361.96;;;5.29;89.72
34696;BME280;20918;51.138;17.370;2023-12-20T12:54:00;99358.15;;;5.26;89.67
34696;BME280;20918;51.138;17.370;2023-12-20T12:57:01;99356.73;;;5.22;89.55
34696;BME280;20918;51.138;17.370;2023-12-20T13:00:02;99356.17;;;5.21;89.05
34696;BME280;20918;51.138;17.370;2023-12-20T13:03:24;99356.39;;;5.20;89.36
34696;BME280;20918;51.138;17.370;2023-12-20T13:09:39;99356.64;;;5.18;89.07
34696;BME280;20918;51.138;17.370;2023-12-20T13:12:40;99358.11;;;5.17;89.10
34696;BME280;20918;51.138;17.370;2023-12-20T13:15:41;99354.23;;;5.15;89.06
34696;BME280;20918;51.138;17.370;2023-12-20T13:18:44;99360.42;;;5.15;89.10
34696;BME280;20918;51.138;17.370;2023-12-20T13:21:45;99360.70;;;5.12;88.99
34696;BME280;20918;51.138;17.370;2023-12-20T13:25:09;99362.76;;;5.11;89.77
34696;BME280;20918;51.138;17.370;2023-12-20T13:28:10;99367.02;;;5.10;89.70
34696;BME280;20918;51.138;17.370;2023-12-20T13:31:11;99363.65;;;5.12;89.81
34696;BME280;20918;51.138;17.370;2023-12-20T13:34:11;99362.60;;;5.16;89.24
34696;BME280;20918;51.138;17.370;2023-12-20T13:37:15;99365.55;;;5.18;89.29
34696;BME280;20918;51.138;17.370;2023-12-20T13:40:16;99371.01;;;5.18;88.38
34696;BME280;20918;51.138;17.370;2023-12-20T13:43:18;99369.86;;;5.19;88.73
34696;BME280;20918;51.138;17.370;2023-12-20T13:46:21;99363.22;;;5.19;88.47
34696;BME280;20918;51.138;17.370;2023-12-20T13:49:25;99352.94;;;5.18;88.02
34696;BME280;20918;51.138;17.370;2023-12-20T13:52:26;99353.36;;;5.17;87.98
34696;BME280;20918;51.138;17.370;2023-12-20T13:55:26;99347.24;;;5.15;87.45
34696;BME280;20918;51.138;17.370;2023-12-20T13:58:30;99345.09;;;5.14;88.05
34696;BME280;20918;51.138;17.370;2023-12-20T14:01:31;99340.29;;;5.13;88.02
34696;BME280;20918;51.138;17.370;2023-12-20T14:04:32;99342.05;;;5.11;87.49
34696;BME280;20918;51.138;17.370;2023-12-20T14:07:33;99337.96;;;5.08;87.57
34696;BME280;20918;51.138;17.370;2023-12-20T14:10:34;99341.10;;;5.08;87.48
34696;BME280;20918;51.138;17.370;2023-12-20T14:13:38;99332.98;;;5.07;87.11
34696;BME280;20918;51.138;17.370;2023-12-20T14:16:54;99322.40;;;5.08;86.42
34696;BME280;20918;51.138;17.370;2023-12-20T14:20:03;99320.66;;;5.09;86.39
34696;BME280;20918;51.138;17.370;2023-12-20T14:23:27;99315.38;;;5.09;86.49
34696;BME280;20918;51.138;17.370;2023-12-20T14:26:28;99319.05;;;5.09;86.30
34696;BME280;20918;51.138;17.370;2023-12-20T14:29:29;99315.73;;;5.09;85.66
34696;BME280;20918;51.138;17.370;2023-12-20T14:32:34;99318.50;;;5.10;85.73
34696;BME280;20918;51.138;17.370;2023-12-20T14:35:35;99321.63;;;5.10;85.59
34696;BME280;20918;51.138;17.370;2023-12-20T14:41:50;99323.47;;;5.11;84.92
34696;BME280;20918;51.138;17.370;2023-12-20T14:44:57;99316.11;;;5.11;84.13
34696;BME280;20918;51.138;17.370;2023-12-20T14:47:58;99314.27;;;5.12;84.27
34696;BME280;20918;51.138;17.370;2023-12-20T14:50:59;99316.77;;;5.13;83.97
34696;BME280;20918;51.138;17.370;2023-12-20T14:54:07;99309.78;;;5.13;83.84
34696;BME280;20918;51.138;17.370;2023-12-20T14:57:10;99308.90;;;5.13;84.18
34696;BME280;20918;51.138;17.370;2023-12-20T15:00:11;99303.29;;;5.11;84.07
34696;BME280;20918;51.138;17.370;2023-12-20T15:03:16;99299.96;;;5.09;83.99
34696;BME280;20918;51.138;17.370;2023-12-20T15:06:18;99290.15;;;5.08;84.01
34696;BME280;20918;51.138;17.370;2023-12-20T15:09:21;99287.28;;;5.07;83.87
34696;BME280;20918;51.138;17.370;2023-12-20T15:12:21;99287.86;;;5.06;83.44
34696;BME280;20918;51.138;17.370;2023-12-20T15:15:24;99286.11;;;5.04;83.48
34696;BME280;20918;51.138;17.370;2023-12-20T15:18:24;99281.48;;;5.02;83.18
34696;BME280;20918;51.138;17.370;2023-12-20T15:21:25;99280.70;;;5.00;83.41
34696;BME280;20918;51.138;17.370;2023-12-20T15:24:39;99276.23;;;5.00;83.22
34696;BME280;20918;51.138;17.370;2023-12-20T15:27:41;99273.66;;;4.99;82.79
34696;BME280;20918;51.138;17.370;2023-12-20T15:30:42;99270.29;;;4.99;82.22
34696;BME280;20918;51.138;17.370;2023-12-20T15:33:47;99269.69;;;5.02;81.61
34696;BME280;20918;51.138;17.370;2023-12-20T15:36:48;99261.83;;;5.03;81.49
34696;BME280;20918;51.138;17.370;2023-12-20T15:39:48;99258.45;;;5.02;81.16
34696;BME280;20918;51.138;17.370;2023-12-20T15:42:52;99248.40;;;4.99;81.01
34696;BME280;20918;51.138;17.370;2023-12-20T15:45:54;99246.10;;;4.96;80.92
34696;BME280;20918;51.138;17.370;2023-12-20T15:48:57;99246.84;;;4.90;80.44
34696;BME280;20918;51.138;17.370;2023-12-20T15:52:07;99251.71;;;4.87;80.24
34696;BME280;20918;51.138;17.370;2023-12-20T15:55:10;99249.79;;;4.81;80.38
34696;BME280;20918;51.138;17.370;2023-12-20T15:58:20;99255.31;;;4.77;79.87
34696;BME280;20918;51.138;17.370;2023-12-20T16:01:20;99250.16;;;4.74;79.77
34696;BME280;20918;51.138;17.370;2023-12-20T16:04:21;99254.55;;;4.74;80.03
34696;BME280;20918;51.138;17.370;2023-12-20T16:07:22;99251.90;;;4.74;80.19
34696;BME280;20918;51.138;17.370;2023-12-20T16:10:27;99249.15;;;4.75;80.29
34696;BME280;20918;51.138;17.370;2023-12-20T16:13:30;99244.69;;;4.76;80.47
34696;BME280;20918;51.138;17.370;2023-12-20T16:16:40;99239.48;;;4.76;80.30
34696;BME280;20918;51.138;17.370;2023-12-20T16:19:44;99236.91;;;4.77;80.43
34696;BME280;20918;51.138;17.370;2023-12-20T16:22:45;99225.29;;;4.78;80.11
34696;BME280;20918;51.138;17.370;2023-12-20T16:25:55;99231.73;;;4.80;79.70
34696;BME280;20918;51.138;17.370;2023-12-20T16:28:56;99236.38;;;4.81;80.08
34696;BME280;20918;51.138;17.370;2023-12-20T16:31:57;99237.00;;;4.81;79.83